Time;durP1;ratioP1;P1;durP2;ratioP2;P2;SDS_P1;SDS_P2;PMS_P1;PMS_P2;Temp;Humidity;BMP_temperature;BMP_pressure;BME280_temperature;BME280_humidity;BME280_pressure;Samples;Min_cycle;Max_cycle;Signal;HPM_P1;HPM_P2
2021/11/29 00:01:56;;;;;;;;;;;;;;;;;;5113091;28;20358;-78
2021/11/29 00:04:22;;;;;;;;;;;;;;;;;;5113742;28;20011;-77
2021/11/29 00:06:48;;;;;;;;;;;;;;;;;;5098620;28;19939;-77
2021/11/29 00:09:13;;;;;;;;;;;;;;;;;;5116897;28;19916;-75
2021/11/29 00:11:39;;;;;;;;;;;;;;;;;;5098369;28;19935;-75
2021/11/29 00:14:05;;;;;;;;;;;;;;;;;;5116814;28;20431;-76
2021/11/29 00:16:30;;;;;;;;;;;;;;;;;;5116431;28;20421;-76
2021/11/29 00:18:56;;;;;;;;;;;;;;;;;;5116863;28;19915;-78
2021/11/29 00:21:21;;;;;;;;;;;;;;;;;;5098254;28;19916;-75
2021/11/29 00:23:47;;;;;;;;;;;;;;;;;;5116603;28;19915;-75
2021/11/29 00:26:16;;;;;;;;;;;;;;;;;;5098377;28;19916;-75
2021/11/29 00:28:43;;;;;;;;;;;;;;;;;;5116555;28;19915;-76
2021/11/29 00:31:08;;;;;;;;;;;;;;;;;;5116317;28;19916;-75
2021/11/29 00:33:34;;;;;;;;;;;;;;;;;;5116218;28;20015;-76
2021/11/29 00:36:00;;;;;;;;;;;;;;;;;;5116187;28;19912;-77
2021/11/29 00:38:25;;;;;;;;;;;;;;;;;;5116286;28;20357;-75
2021/11/29 00:40:51;;;;;;;;;;;;;;;;;;5116142;28;19920;-76
2021/11/29 00:43:16;;;;;;;;;;;;;;;;;;5097965;28;19922;-75
2021/11/29 00:45:42;;;;;;;;;;;;;;;;;;5116108;28;19920;-75
2021/11/29 00:48:07;;;;;;;;;;;;;;;;;;5116322;28;20309;-75
2021/11/29 00:50:37;;;;;;;;;;;;;;;;;;5115991;28;20411;-76
2021/11/29 00:53:03;;;;;;;;;;;;;;;;;;5116043;28;19945;-79
2021/11/29 00:55:28;;;;;;;;;;;;;;;;;;5115839;28;19919;-76
2021/11/29 00:57:54;;;;;;;;;;;;;;;;;;5115972;28;20386;-75
2021/11/29 01:00:20;;;;;;;;;;;;;;;;;;5097731;28;19927;-75
2021/11/29 01:02:46;;;;;;;;;;;;;;;;;;5115771;28;19954;-75
2021/11/29 01:05:11;;;;;;;;;;;;;;;;;;5115869;28;20408;-76
2021/11/29 01:07:37;;;;;;;;;;;;;;;;;;5115728;28;20002;-75
2021/11/29 01:10:04;;;;;;;;;;;;;;;;;;5115640;28;19962;-76
2021/11/29 01:12:29;;;;;;;;;;;;;;;;;;5115660;28;19915;-78
2021/11/29 01:14:55;;;;;;;;;;;;;;;;;;5115561;28;19922;-75
2021/11/29 01:17:20;;;;;;;;;;;;;;;;;;5115318;28;19920;-75
2021/11/29 01:19:46;;;;;;;;;;;;;;;;;;5097215;28;19916;-75
2021/11/29 01:22:11;;;;;;;;;;;;;;;;;;5097118;28;19923;-75
2021/11/29 01:24:36;;;;;;;;;;;;;;;;;;5115359;28;20338;-76
2021/11/29 01:27:02;;;;;;;;;;;;;;;;;;5115284;28;19916;-75
2021/11/29 01:29:28;;;;;;;;;;;;;;;;;;5115295;28;19941;-76
2021/11/29 01:31:53;;;;;;;;;;;;;;;;;;5115213;28;19923;-75
2021/11/29 01:34:19;;;;;;;;;;;;;;;;;;5096859;28;20359;-75
2021/11/29 01:36:45;;;;;;;;;;;;;;;;;;5115112;28;19985;-76
2021/11/29 01:39:10;;;;;;;;;;;;;;;;;;5115073;28;19962;-76
2021/11/29 01:41:37;;;;;;;;;;;;;;;;;;5096752;28;19942;-77
2021/11/29 01:44:02;;;;;;;;;;;;;;;;;;5114991;28;19922;-75
2021/11/29 01:46:28;;;;;;;;;;;;;;;;;;5096781;28;19916;-76
2021/11/29 01:48:53;;;;;;;;;;;;;;;;;;5096629;28;19922;-75
2021/11/29 01:51:19;;;;;;;;;;;;;;;;;;5114592;28;20016;-76
2021/11/29 01:53:44;;;;;;;;;;;;;;;;;;5114633;28;19919;-75
2021/11/29 01:56:10;;;;;;;;;;;;;;;;;;5114022;28;19916;-76
2021/11/29 01:58:37;;;;;;;;;;;;;;;;;;5114762;28;19916;-76
2021/11/29 02:01:07;;;;;;;;;;;;;;;;;;5114591;28;19924;-75
2021/11/29 02:03:33;;;;;;;;;;;;;;;;;;5114909;28;19927;-75
2021/11/29 02:05:59;;;;;;;;;;;;;;;;;;5114634;28;19950;-75
2021/11/29 02:08:24;;;;;;;;;;;;;;;;;;5114535;28;20354;-75
2021/11/29 02:10:50;;;;;;;;;;;;;;;;;;5114413;28;20397;-76
2021/11/29 02:13:17;;;;;;;;;;;;;;;;;;5096112;28;19967;-75
2021/11/29 02:15:42;;;;;;;;;;;;;;;;;;5114247;28;19984;-78
2021/11/29 02:18:08;;;;;;;;;;;;;;;;;;5114363;28;20394;-75
2021/11/29 02:20:37;;;;;;;;;;;;;;;;;;5114293;28;19919;-75
2021/11/29 02:23:03;;;;;;;;;;;;;;;;;;5114512;28;20372;-75
2021/11/29 02:25:31;;;;;;;;;;;;;;;;;;5095540;28;20197;-75
2021/11/29 02:27:56;;;;;;;;;;;;;;;;;;5113638;28;20259;-75
2021/11/29 02:30:24;;;;;;;;;;;;;;;;;;5095840;28;19923;-76
2021/11/29 02:32:51;;;;;;;;;;;;;;;;;;5114112;28;19950;-77
2021/11/29 02:35:16;;;;;;;;;;;;;;;;;;5113938;28;19941;-75
2021/11/29 02:37:42;;;;;;;;;;;;;;;;;;5113974;28;19922;-75
2021/11/29 02:40:08;;;;;;;;;;;;;;;;;;5113964;28;19916;-76
2021/11/29 02:42:33;;;;;;;;;;;;;;;;;;5113990;28;20019;-76
2021/11/29 02:44:59;;;;;;;;;;;;;;;;;;5113963;28;19923;-75
2021/11/29 02:47:24;;;;;;;;;;;;;;;;;;5095405;28;19925;-77
2021/11/29 02:49:50;;;;;;;;;;;;;;;;;;5113700;28;19920;-75
2021/11/29 02:52:18;;;;;;;;;;;;;;;;;;5113688;28;19961;-75
2021/11/29 02:54:44;;;;;;;;;;;;;;;;;;5113707;28;19916;-75
2021/11/29 02:57:11;;;;;;;;;;;;;;;;;;5095460;28;19916;-75
2021/11/29 02:59:38;;;;;;;;;;;;;;;;;;5113649;28;19916;-76
2021/11/29 03:02:05;;;;;;;;;;;;;;;;;;5113612;28;20397;-75
2021/11/29 03:04:32;;;;;;;;;;;;;;;;;;5113632;28;19923;-75
2021/11/29 03:06:58;;;;;;;;;;;;;;;;;;5113403;28;19965;-75
2021/11/29 03:09:23;;;;;;;;;;;;;;;;;;5113566;28;19938;-76
2021/11/29 03:11:50;;;;;;;;;;;;;;;;;;5113225;28;20358;-75
2021/11/29 03:14:16;;;;;;;;;;;;;;;;;;5095387;28;20307;-76
2021/11/29 03:16:42;;;;;;;;;;;;;;;;;;5113305;28;19977;-76
2021/11/29 03:19:08;;;;;;;;;;;;;;;;;;5113337;28;19923;-75
2021/11/29 03:21:33;;;;;;;;;;;;;;;;;;5113474;28;20282;-76
2021/11/29 03:24:00;;;;;;;;;;;;;;;;;;5113313;28;19916;-75
2021/11/29 03:26:27;;;;;;;;;;;;;;;;;;5113468;28;20397;-75
2021/11/29 03:28:54;;;;;;;;;;;;;;;;;;5113363;28;19926;-76
2021/11/29 03:31:20;;;;;;;;;;;;;;;;;;5113275;28;20056;-76
2021/11/29 03:33:46;;;;;;;;;;;;;;;;;;5113368;28;19915;-76
2021/11/29 03:36:12;;;;;;;;;;;;;;;;;;5113237;28;20052;-76
2021/11/29 03:38:38;;;;;;;;;;;;;;;;;;5113349;28;19923;-75
2021/11/29 03:41:03;;;;;;;;;;;;;;;;;;5116633;28;19923;-76
2021/11/29 03:43:28;;;;;;;;;;;;;;;;;;5117553;28;19916;-76
2021/11/29 03:45:54;;;;;;;;;;;;;;;;;;5117203;28;19919;-76
2021/11/29 03:48:20;;;;;;;;;;;;;;;;;;5117287;28;19941;-76
2021/11/29 03:50:45;;;;;;;;;;;;;;;;;;5117116;28;20014;-80
2021/11/29 03:53:11;;;;;;;;;;;;;;;;;;5117132;28;19916;-75
2021/11/29 03:55:37;;;;;;;;;;;;;;;;;;5117012;28;19969;-75
2021/11/29 03:58:03;;;;;;;;;;;;;;;;;;5116881;28;19916;-76
2021/11/29 04:00:28;;;;;;;;;;;;;;;;;;5098656;28;19937;-78
2021/11/29 04:02:54;;;;;;;;;;;;;;;;;;5116993;28;20065;-76
2021/11/29 04:05:20;;;;;;;;;;;;;;;;;;5116961;28;19924;-80
2021/11/29 04:07:45;;;;;;;;;;;;;;;;;;5116754;28;20019;-76
2021/11/29 04:10:11;;;;;;;;;;;;;;;;;;5116907;28;20370;-75
2021/11/29 04:12:36;;;;;;;;;;;;;;;;;;5098457;28;19920;-75
2021/11/29 04:15:02;;;;;;;;;;;;;;;;;;5098192;28;19920;-75
2021/11/29 04:17:28;;;;;;;;;;;;;;;;;;5114205;28;20331;-77
2021/11/29 04:19:53;;;;;;;;;;;;;;;;;;5091124;28;19927;-76
2021/11/29 04:22:19;;;;;;;;;;;;;;;;;;5089807;28;19927;-76
2021/11/29 04:24:46;;;;;;;;;;;;;;;;;;5090013;28;19920;-75
2021/11/29 04:27:12;;;;;;;;;;;;;;;;;;5089446;28;19921;-76
2021/11/29 04:29:41;;;;;;;;;;;;;;;;;;5069709;28;19923;-76
2021/11/29 04:32:07;;;;;;;;;;;;;;;;;;5088326;28;19920;-76
2021/11/29 04:34:33;;;;;;;;;;;;;;;;;;5088211;28;19922;-85
2021/11/29 04:36:58;;;;;;;;;;;;;;;;;;5107255;28;19938;-74
2021/11/29 04:39:24;;;;;;;;;;;;;;;;;;5116611;28;19924;-74
2021/11/29 04:41:49;;;;;;;;;;;;;;;;;;5116230;28;19916;-74
2021/11/29 04:44:15;;;;;;;;;;;;;;;;;;5098552;28;19911;-74
2021/11/29 04:46:40;;;;;;;;;;;;;;;;;;5116518;28;19919;-74
2021/11/29 04:49:06;;;;;;;;;;;;;;;;;;5116105;28;20386;-75
2021/11/29 04:51:31;;;;;;;;;;;;;;;;;;5115809;28;19923;-77
2021/11/29 04:53:57;;;;;;;;;;;;;;;;;;5115790;28;19916;-75
2021/11/29 04:56:22;;;;;;;;;;;;;;;;;;5115998;28;19922;-76
2021/11/29 04:58:48;;;;;;;;;;;;;;;;;;5115937;28;19924;-75
2021/11/29 05:01:13;;;;;;;;;;;;;;;;;;5115922;28;19916;-76
2021/11/29 05:03:39;;;;;;;;;;;;;;;;;;5115579;28;19920;-75
2021/11/29 05:06:04;;;;;;;;;;;;;;;;;;5115772;28;20428;-74
2021/11/29 05:08:30;;;;;;;;;;;;;;;;;;5097746;28;20347;-75
2021/11/29 05:10:56;;;;;;;;;;;;;;;;;;5115547;28;19915;-76
2021/11/29 05:13:21;;;;;;;;;;;;;;;;;;5115646;28;19959;-75
2021/11/29 05:15:47;;;;;;;;;;;;;;;;;;5115376;28;19922;-76
2021/11/29 05:18:12;;;;;;;;;;;;;;;;;;5097330;28;20384;-76
2021/11/29 05:20:38;;;;;;;;;;;;;;;;;;5115495;28;19916;-75
2021/11/29 05:23:03;;;;;;;;;;;;;;;;;;5115276;28;20329;-74
2021/11/29 05:25:29;;;;;;;;;;;;;;;;;;5115465;28;19916;-74
2021/11/29 05:27:55;;;;;;;;;;;;;;;;;;5115282;28;19931;-75
2021/11/29 05:30:20;;;;;;;;;;;;;;;;;;5115365;28;20363;-75
2021/11/29 05:32:46;;;;;;;;;;;;;;;;;;5115238;28;19927;-74
2021/11/29 05:35:11;;;;;;;;;;;;;;;;;;5115224;28;19923;-75
2021/11/29 05:37:37;;;;;;;;;;;;;;;;;;5115213;28;19923;-74
2021/11/29 05:40:03;;;;;;;;;;;;;;;;;;5111171;28;19927;-74
2021/11/29 05:42:29;;;;;;;;;;;;;;;;;;5097854;28;19926;-74
2021/11/29 05:44:54;;;;;;;;;;;;;;;;;;5096748;28;20347;-74
2021/11/29 05:47:20;;;;;;;;;;;;;;;;;;5114004;28;19970;-74
2021/11/29 05:49:46;;;;;;;;;;;;;;;;;;5091646;28;19920;-80
2021/11/29 05:52:11;;;;;;;;;;;;;;;;;;5093440;28;20450;-83
2021/11/29 05:54:37;;;;;;;;;;;;;;;;;;5076309;28;19989;-79
2021/11/29 05:57:02;;;;;;;;;;;;;;;;;;5094556;28;20283;-77
2021/11/29 05:59:28;;;;;;;;;;;;;;;;;;5094321;28;19920;-77
2021/11/29 06:01:53;;;;;;;;;;;;;;;;;;5094269;28;19916;-87
2021/11/29 06:04:19;;;;;;;;;;;;;;;;;;5096056;28;19923;-76
2021/11/29 06:06:45;;;;;;;;;;;;;;;;;;5094349;28;19920;-79
2021/11/29 06:09:10;;;;;;;;;;;;;;;;;;5094256;28;20375;-90
2021/11/29 06:11:36;;;;;;;;;;;;;;;;;;5094052;28;19923;-77
2021/11/29 06:14:01;;;;;;;;;;;;;;;;;;5094121;28;20394;-77
2021/11/29 06:16:26;;;;;;;;;;;;;;;;;;5089968;28;20328;-75
2021/11/29 06:18:52;;;;;;;;;;;;;;;;;;5082593;28;19916;-76
2021/11/29 06:21:17;;;;;;;;;;;;;;;;;;5073677;28;20264;-75
2021/11/29 06:23:43;;;;;;;;;;;;;;;;;;5073529;28;19920;-77
2021/11/29 06:26:08;;;;;;;;;;;;;;;;;;5076606;28;19978;-76
2021/11/29 06:28:34;;;;;;;;;;;;;;;;;;5082777;28;19943;-75
2021/11/29 06:30:59;;;;;;;;;;;;;;;;;;5085485;28;19922;-76
2021/11/29 06:33:25;;;;;;;;;;;;;;;;;;5114144;28;19916;-77
2021/11/29 06:35:51;;;;;;;;;;;;;;;;;;5095865;28;19919;-76
2021/11/29 06:38:17;;;;;;;;;;;;;;;;;;5113972;28;20362;-79
2021/11/29 06:40:47;;;;;;;;;;;;;;;;;;5095733;28;19968;-78
2021/11/29 06:43:12;;;;;;;;;;;;;;;;;;5095611;28;19915;-77
2021/11/29 06:45:38;;;;;;;;;;;;;;;;;;5113947;28;19941;-77
2021/11/29 06:48:03;;;;;;;;;;;;;;;;;;5113914;28;19968;-76
2021/11/29 06:50:29;;;;;;;;;;;;;;;;;;5113794;28;19916;-75
2021/11/29 06:52:54;;;;;;;;;;;;;;;;;;5113772;28;19977;-76
2021/11/29 06:55:20;;;;;;;;;;;;;;;;;;5113820;28;20750;-76
2021/11/29 06:57:46;;;;;;;;;;;;;;;;;;5113626;28;19919;-77
2021/11/29 07:00:13;;;;;;;;;;;;;;;;;;5113655;28;19915;-76
2021/11/29 07:02:41;;;;;;;;;;;;;;;;;;5113969;28;19981;-76
2021/11/29 07:05:07;;;;;;;;;;;;;;;;;;5113696;28;19959;-77
2021/11/29 07:07:33;;;;;;;;;;;;;;;;;;5113310;28;19916;-77
2021/11/29 07:09:59;;;;;;;;;;;;;;;;;;5113543;28;20002;-82
2021/11/29 07:12:24;;;;;;;;;;;;;;;;;;5113386;28;19943;-77
2021/11/29 07:14:49;;;;;;;;;;;;;;;;;;5119059;28;20006;-78
2021/11/29 07:17:15;;;;;;;;;;;;;;;;;;5120281;28;19920;-75
2021/11/29 07:19:40;;;;;;;;;;;;;;;;;;5120271;28;19915;-78
2021/11/29 07:22:06;;;;;;;;;;;;;;;;;;5120216;28;19968;-75
2021/11/29 07:24:32;;;;;;;;;;;;;;;;;;5103378;28;19920;-76
2021/11/29 07:26:58;;;;;;;;;;;;;;;;;;5099740;28;19916;-75
2021/11/29 07:29:23;;;;;;;;;;;;;;;;;;5099876;28;19927;-75
2021/11/29 07:31:49;;;;;;;;;;;;;;;;;;5081566;28;19916;-75
2021/11/29 07:34:14;;;;;;;;;;;;;;;;;;5099628;28;19947;-78
2021/11/29 07:36:40;;;;;;;;;;;;;;;;;;5099764;28;19923;-77
2021/11/29 07:39:06;;;;;;;;;;;;;;;;;;5099622;28;20398;-77
2021/11/29 07:41:32;;;;;;;;;;;;;;;;;;5081531;28;19916;-78
2021/11/29 07:43:57;;;;;;;;;;;;;;;;;;5099715;28;19916;-84
2021/11/29 07:46:23;;;;;;;;;;;;;;;;;;5099919;28;20272;-77
2021/11/29 07:48:48;;;;;;;;;;;;;;;;;;5099645;28;19939;-77
2021/11/29 07:51:14;;;;;;;;;;;;;;;;;;5099500;28;20026;-78
2021/11/29 07:53:39;;;;;;;;;;;;;;;;;;5099585;28;19920;-76
2021/11/29 07:56:05;;;;;;;;;;;;;;;;;;5098094;28;19924;-89
2021/11/29 07:58:30;;;;;;;;;;;;;;;;;;5090415;28;20423;-82
2021/11/29 08:00:56;;;;;;;;;;;;;;;;;;5091279;28;19970;-84
2021/11/29 08:03:21;;;;;;;;;;;;;;;;;;5086615;28;20381;-78
2021/11/29 08:05:47;;;;;;;;;;;;;;;;;;5088538;28;20383;-86
2021/11/29 08:08:13;;;;;;;;;;;;;;;;;;5091447;28;19923;-88
2021/11/29 08:10:39;;;;;;;;;;;;;;;;;;5120151;28;19949;-87
2021/11/29 08:13:07;;;;;;;;;;;;;;;;;;5103928;28;20008;-77
2021/11/29 08:15:33;;;;;;;;;;;;;;;;;;5091766;28;19920;-76
2021/11/29 08:17:58;;;;;;;;;;;;;;;;;;5104603;28;20283;-78
2021/11/29 08:20:24;;;;;;;;;;;;;;;;;;5093164;28;19924;-80
2021/11/29 08:22:54;;;;;;;;;;;;;;;;;;5134496;27;19911;-77
2021/11/29 08:25:20;;;;;;;;;;;;;;;;;;5111891;28;19928;-83
2021/11/29 08:27:46;;;;;;;;;;;;;;;;;;5093434;28;20329;-86
2021/11/29 08:30:17;;;;;;;;;;;;;;;;;;5095982;28;20334;-76
2021/11/29 08:32:44;;;;;;;;;;;;;;;;;;5096045;28;19927;-76
2021/11/29 08:35:10;;;;;;;;;;;;;;;;;;5095828;28;20018;-86
2021/11/29 08:37:36;;;;;;;;;;;;;;;;;;5096053;28;20286;-75
2021/11/29 08:40:02;;;;;;;;;;;;;;;;;;5095987;28;19922;-76
2021/11/29 08:42:28;;;;;;;;;;;;;;;;;;5095953;28;19920;-76
2021/11/29 08:44:53;;;;;;;;;;;;;;;;;;5095860;28;19942;-76
2021/11/29 08:47:19;;;;;;;;;;;;;;;;;;5095775;28;19920;-75
2021/11/29 08:49:44;;;;;;;;;;;;;;;;;;5096719;28;19920;-75
2021/11/29 08:52:10;;;;;;;;;;;;;;;;;;5095657;28;19999;-75
2021/11/29 08:54:39;;;;;;;;;;;;;;;;;;5084006;28;19920;-86
2021/11/29 08:57:05;;;;;;;;;;;;;;;;;;5087115;28;19939;-82
2021/11/29 08:59:30;;;;;;;;;;;;;;;;;;5101688;28;20291;-82
2021/11/29 09:01:56;;;;;;;;;;;;;;;;;;5085037;28;20352;-74
2021/11/29 09:04:22;;;;;;;;;;;;;;;;;;5074041;28;19921;-77
2021/11/29 09:06:47;;;;;;;;;;;;;;;;;;5087176;28;19927;-78
2021/11/29 09:12:14;;;;;;;;;;;;;;;;;;;;;
2021/11/29 09:14:41;;;;;;;;;;;;;;;;;;5084814;28;19927;-82
2021/11/29 09:17:12;;;;;;;;;;;;;;;;;;5097384;28;19964;-78
2021/11/29 09:19:57;;;;;;;;;;;;;;;;;;5074734;28;19920;-83
2021/11/29 09:22:25;;;;;;;;;;;;;;;;;;5109177;28;20356;-77
2021/11/29 09:24:54;;;;;;;;;;;;;;;;;;5094389;28;19924;-77
2021/11/29 09:27:19;;;;;;;;;;;;;;;;;;5100343;28;19989;-77
2021/11/29 09:29:50;;;;;;;;;;;;;;;;;;5099684;28;20374;-78
2021/11/29 09:32:16;;;;;;;;;;;;;;;;;;5087897;28;20002;-76
2021/11/29 09:34:45;;;;;;;;;;;;;;;;;;5074957;28;20481;-78
2021/11/29 09:37:11;;;;;;;;;;;;;;;;;;5073731;28;19912;-92
2021/11/29 09:39:42;;;;;;;;;;;;;;;;;;5083771;28;20039;-77
2021/11/29 09:42:11;;;;;;;;;;;;;;;;;;5082294;28;19976;-77
2021/11/29 09:44:36;;;;;;;;;;;;;;;;;;5068676;28;19927;-76
2021/11/29 09:47:02;;;;;;;;;;;;;;;;;;5078660;28;19917;-77
2021/11/29 09:49:29;;;;;;;;;;;;;;;;;;5079788;28;20019;-86
2021/11/29 09:51:58;;;;;;;;;;;;;;;;;;5067980;28;19967;-90
2021/11/29 09:54:24;;;;;;;;;;;;;;;;;;5079390;28;19997;-77
2021/11/29 09:56:53;;;;;;;;;;;;;;;;;;5086555;28;19985;-87
2021/11/29 09:59:23;;;;;;;;;;;;;;;;;;5086099;28;19924;-90
2021/11/29 10:01:48;;;;;;;;;;;;;;;;;;5081387;28;20295;-81
2021/11/29 10:04:14;;;;;;;;;;;;;;;;;;5082918;28;20023;-76
2021/11/29 10:06:39;;;;;;;;;;;;;;;;;;5091239;28;20337;-75
2021/11/29 10:09:25;;;;;;;;;;;;;;;;;;5092856;28;20014;-74
2021/11/29 10:11:51;;;;;;;;;;;;;;;;;;5072241;28;19920;-92
2021/11/29 10:14:16;;;;;;;;;;;;;;;;;;5074480;28;19953;-83
2021/11/29 10:16:43;;;;;;;;;;;;;;;;;;5062483;28;19921;-85
2021/11/29 10:19:10;;;;;;;;;;;;;;;;;;5064842;28;19978;-76
2021/11/29 10:21:38;;;;;;;;;;;;;;;;;;5054803;28;20037;-77
2021/11/29 10:24:10;;;;;;;;;;;;;;;;;;5061732;28;20437;-81
2021/11/29 10:26:36;;;;;;;;;;;;;;;;;;5049113;28;19967;-84
2021/11/29 10:29:04;;;;;;;;;;;;;;;;;;5060598;28;20919;-78
2021/11/29 10:31:31;;;;;;;;;;;;;;;;;;5070520;28;19924;-78
2021/11/29 10:34:00;;;;;;;;;;;;;;;;;;5051486;28;20027;-79
2021/11/29 10:36:26;;;;;;;;;;;;;;;;;;5069008;28;19924;-76
2021/11/29 10:38:56;;;;;;;;;;;;;;;;;;5068174;28;19934;-74
2021/11/29 10:41:33;;;;;;;;;;;;;;;;;;5065340;28;19986;-73
2021/11/29 10:43:59;;;;;;;;;;;;;;;;;;5052006;28;19917;-74
2021/11/29 10:46:27;;;;;;;;;;;;;;;;;;5042426;28;19966;-75
2021/11/29 10:48:53;;;;;;;;;;;;;;;;;;5051652;28;19928;-77
2021/11/29 10:51:20;;;;;;;;;;;;;;;;;;5051499;28;19994;-75
2021/11/29 10:53:45;;;;;;;;;;;;;;;;;;5034411;28;20356;-78
2021/11/29 10:56:10;;;;;;;;;;;;;;;;;;5052658;28;19963;-77
2021/11/29 10:58:40;;;;;;;;;;;;;;;;;;5034873;28;19988;-73
2021/11/29 11:01:06;;;;;;;;;;;;;;;;;;5053071;28;19964;-77
2021/11/29 11:03:48;;;;;;;;;;;;;;;;;;5053125;28;19919;-75
2021/11/29 11:06:13;;;;;;;;;;;;;;;;;;5053164;28;19920;-74
2021/11/29 11:08:39;;;;;;;;;;;;;;;;;;5052968;28;19920;-73
2021/11/29 11:11:24;;;;;;;;;;;;;;;;;;5052889;28;19967;-74
2021/11/29 11:14:03;;;;;;;;;;;;;;;;;;5052886;28;19916;-74
2021/11/29 11:16:43;;;;;;;;;;;;;;;;;;5049418;28;19924;-74
2021/11/29 11:19:28;;;;;;;;;;;;;;;;;;5071535;28;19923;-74
2021/11/29 11:21:56;;;;;;;;;;;;;;;;;;5072316;28;19924;-74
2021/11/29 11:24:29;;;;;;;;;;;;;;;;;;5054936;28;19924;-78
2021/11/29 11:26:56;;;;;;;;;;;;;;;;;;5073265;28;19924;-75
2021/11/29 11:29:34;;;;;;;;;;;;;;;;;;5071908;28;20272;-74
2021/11/29 11:32:23;;;;;;;;;;;;;;;;;;5071525;28;19924;-74
2021/11/29 11:34:50;;;;;;;;;;;;;;;;;;5073176;28;20375;-74
2021/11/29 11:37:20;;;;;;;;;;;;;;;;;;5072958;28;20007;-75
2021/11/29 11:39:47;;;;;;;;;;;;;;;;;;5071559;28;19916;-75
2021/11/29 11:42:13;;;;;;;;;;;;;;;;;;5072771;28;19920;-75
2021/11/29 11:44:39;;;;;;;;;;;;;;;;;;5072745;28;19917;-74
2021/11/29 11:47:08;;;;;;;;;;;;;;;;;;5071484;28;20151;-75
2021/11/29 11:49:43;;;;;;;;;;;;;;;;;;5072761;28;19961;-77
2021/11/29 11:52:13;;;;;;;;;;;;;;;;;;5071332;28;19917;-78
2021/11/29 11:54:40;;;;;;;;;;;;;;;;;;5072618;28;19921;-78
2021/11/29 11:57:07;;;;;;;;;;;;;;;;;;5071413;28;19916;-77
2021/11/29 11:59:47;;;;;;;;;;;;;;;;;;5070841;28;19916;-76
2021/11/29 12:02:15;;;;;;;;;;;;;;;;;;5076190;28;19916;-77
2021/11/29 12:04:41;;;;;;;;;;;;;;;;;;5076331;28;19967;-76
2021/11/29 12:07:08;;;;;;;;;;;;;;;;;;5076308;28;20005;-76
2021/11/29 12:09:33;;;;;;;;;;;;;;;;;;5076301;28;20435;-76
2021/11/29 12:12:03;;;;;;;;;;;;;;;;;;5076151;28;20007;-78
2021/11/29 12:14:36;;;;;;;;;;;;;;;;;;5076434;28;20283;-78
2021/11/29 12:17:01;;;;;;;;;;;;;;;;;;5076042;28;20011;-73
2021/11/29 12:19:27;;;;;;;;;;;;;;;;;;5076140;28;19948;-75
2021/11/29 12:21:53;;;;;;;;;;;;;;;;;;5082982;28;19946;-75
2021/11/29 12:24:21;;;;;;;;;;;;;;;;;;5101907;28;19924;-75
2021/11/29 12:26:47;;;;;;;;;;;;;;;;;;5112087;28;19926;-74
2021/11/29 12:29:21;;;;;;;;;;;;;;;;;;5113852;28;20007;-75
2021/11/29 12:32:05;;;;;;;;;;;;;;;;;;5113143;28;20437;-77
2021/11/29 12:34:49;;;;;;;;;;;;;;;;;;5116692;28;19916;-74
2021/11/29 12:37:35;;;;;;;;;;;;;;;;;;5097930;28;19994;-75
2021/11/29 12:40:03;;;;;;;;;;;;;;;;;;5112574;28;20450;-76
2021/11/29 12:42:28;;;;;;;;;;;;;;;;;;5101626;28;20411;-74
2021/11/29 12:44:58;;;;;;;;;;;;;;;;;;5098226;28;20034;-74
2021/11/29 12:47:24;;;;;;;;;;;;;;;;;;5116178;28;19923;-74
2021/11/29 12:49:50;;;;;;;;;;;;;;;;;;5116018;28;19939;-76
2021/11/29 12:52:35;;;;;;;;;;;;;;;;;;5115985;28;19928;-75
2021/11/29 12:55:02;;;;;;;;;;;;;;;;;;5097205;28;19919;-76
2021/11/29 12:57:30;;;;;;;;;;;;;;;;;;5097685;28;19923;-75
2021/11/29 13:00:03;;;;;;;;;;;;;;;;;;5081358;28;19955;-76
2021/11/29 13:02:39;;;;;;;;;;;;;;;;;;5087733;28;19916;-75
2021/11/29 13:05:23;;;;;;;;;;;;;;;;;;5094869;28;19986;-76
2021/11/29 13:08:07;;;;;;;;;;;;;;;;;;5085701;28;19952;-74
2021/11/29 13:10:44;;;;;;;;;;;;;;;;;;5090348;28;19986;-75
2021/11/29 13:13:25;;;;;;;;;;;;;;;;;;5098164;28;20284;-73
2021/11/29 13:15:51;;;;;;;;;;;;;;;;;;5110367;28;19960;-73
2021/11/29 13:18:36;;;;;;;;;;;;;;;;;;5097330;28;19920;-73
2021/11/29 13:21:02;;;;;;;;;;;;;;;;;;5115533;28;20376;-73
2021/11/29 13:23:27;;;;;;;;;;;;;;;;;;5115521;28;19920;-73
2021/11/29 13:25:59;;;;;;;;;;;;;;;;;;5097087;28;20303;-73
2021/11/29 13:28:25;;;;;;;;;;;;;;;;;;5103015;28;19976;-73
2021/11/29 13:30:52;;;;;;;;;;;;;;;;;;5115402;28;19916;-74
2021/11/29 13:33:17;;;;;;;;;;;;;;;;;;5115089;28;19916;-73
2021/11/29 13:35:45;;;;;;;;;;;;;;;;;;5115093;28;19920;-73
2021/11/29 13:38:10;;;;;;;;;;;;;;;;;;5115093;28;20375;-74
2021/11/29 13:40:36;;;;;;;;;;;;;;;;;;5114571;28;19927;-73
2021/11/29 13:43:03;;;;;;;;;;;;;;;;;;5115111;28;19916;-73
2021/11/29 13:45:32;;;;;;;;;;;;;;;;;;5115041;28;20435;-73
2021/11/29 13:48:07;;;;;;;;;;;;;;;;;;5114143;28;19967;-74
2021/11/29 13:50:34;;;;;;;;;;;;;;;;;;5114924;28;20363;-73
2021/11/29 13:53:07;;;;;;;;;;;;;;;;;;5114838;28;19973;-73
2021/11/29 13:55:34;;;;;;;;;;;;;;;;;;5111088;28;19920;-73
2021/11/29 13:58:07;;;;;;;;;;;;;;;;;;5099645;28;20351;-76
2021/11/29 14:00:52;;;;;;;;;;;;;;;;;;5096123;28;19922;-76
2021/11/29 14:03:21;;;;;;;;;;;;;;;;;;5114746;28;19922;-76
2021/11/29 14:05:48;;;;;;;;;;;;;;;;;;5110418;28;20272;-81
2021/11/29 14:08:16;;;;;;;;;;;;;;;;;;5114591;28;19915;-76
2021/11/29 14:10:56;;;;;;;;;;;;;;;;;;5114494;28;20011;-73
2021/11/29 14:13:23;;;;;;;;;;;;;;;;;;5114285;28;19920;-73
2021/11/29 14:16:05;;;;;;;;;;;;;;;;;;5114167;28;19954;-74
2021/11/29 14:18:44;;;;;;;;;;;;;;;;;;5114488;28;19920;-72
2021/11/29 14:21:17;;;;;;;;;;;;;;;;;;5114225;28;20387;-74
2021/11/29 14:23:45;;;;;;;;;;;;;;;;;;5105159;28;19920;-74
2021/11/29 14:26:12;;;;;;;;;;;;;;;;;;5094107;28;19959;-78
2021/11/29 14:28:38;;;;;;;;;;;;;;;;;;5093937;28;20431;-74
2021/11/29 14:31:05;;;;;;;;;;;;;;;;;;5075071;28;19951;-75
2021/11/29 14:33:37;;;;;;;;;;;;;;;;;;5094157;28;19924;-75
2021/11/29 14:36:04;;;;;;;;;;;;;;;;;;5096907;28;20264;-76
2021/11/29 14:38:44;;;;;;;;;;;;;;;;;;5093709;28;19958;-75
2021/11/29 14:41:09;;;;;;;;;;;;;;;;;;5075523;28;19969;-75
2021/11/29 14:43:36;;;;;;;;;;;;;;;;;;5093596;28;19920;-77
2021/11/29 14:46:05;;;;;;;;;;;;;;;;;;5093558;28;19916;-76
2021/11/29 14:48:30;;;;;;;;;;;;;;;;;;5084023;28;19920;-83
2021/11/29 14:50:56;;;;;;;;;;;;;;;;;;5090707;28;19923;-82
2021/11/29 14:53:23;;;;;;;;;;;;;;;;;;5093409;28;19916;-81
2021/11/29 14:55:50;;;;;;;;;;;;;;;;;;5093452;28;19945;-77
2021/11/29 14:58:23;;;;;;;;;;;;;;;;;;5075306;28;20282;-83
2021/11/29 15:00:50;;;;;;;;;;;;;;;;;;5093647;28;19924;-75
2021/11/29 15:03:18;;;;;;;;;;;;;;;;;;5093226;28;19973;-76
2021/11/29 15:05:45;;;;;;;;;;;;;;;;;;5093322;28;20431;-76
2021/11/29 15:08:20;;;;;;;;;;;;;;;;;;5075191;28;19970;-78
2021/11/29 15:10:47;;;;;;;;;;;;;;;;;;5093357;28;19926;-75
2021/11/29 15:13:13;;;;;;;;;;;;;;;;;;5093254;28;20003;-74
2021/11/29 15:15:38;;;;;;;;;;;;;;;;;;5093216;28;20365;-75
2021/11/29 15:18:05;;;;;;;;;;;;;;;;;;5074963;28;20007;-74
2021/11/29 15:20:38;;;;;;;;;;;;;;;;;;5093250;28;19916;-78
2021/11/29 15:23:04;;;;;;;;;;;;;;;;;;5093258;28;20791;-75
2021/11/29 15:25:32;;;;;;;;;;;;;;;;;;5093247;28;19916;-77
2021/11/29 15:28:20;;;;;;;;;;;;;;;;;;5093135;28;19923;-76
2021/11/29 15:30:47;;;;;;;;;;;;;;;;;;5093060;28;19946;-77
2021/11/29 15:33:13;;;;;;;;;;;;;;;;;;5092920;28;19974;-76
2021/11/29 15:35:49;;;;;;;;;;;;;;;;;;5095953;28;19955;-75
2021/11/29 15:38:21;;;;;;;;;;;;;;;;;;5078924;28;19919;-76
2021/11/29 15:40:52;;;;;;;;;;;;;;;;;;5078737;28;19916;-78
2021/11/29 15:43:34;;;;;;;;;;;;;;;;;;5079121;28;19962;-76
2021/11/29 15:46:04;;;;;;;;;;;;;;;;;;5096964;28;19924;-76
2021/11/29 15:48:39;;;;;;;;;;;;;;;;;;5097238;28;19912;-75
2021/11/29 15:51:07;;;;;;;;;;;;;;;;;;5096925;28;19951;-76
2021/11/29 15:53:32;;;;;;;;;;;;;;;;;;5096810;28;20307;-80
2021/11/29 15:55:59;;;;;;;;;;;;;;;;;;5096812;28;19916;-76
2021/11/29 15:58:25;;;;;;;;;;;;;;;;;;5096579;28;19946;-76
2021/11/29 16:00:52;;;;;;;;;;;;;;;;;;5096579;28;19920;-79
2021/11/29 16:03:17;;;;;;;;;;;;;;;;;;5096662;28;19982;-78
2021/11/29 16:05:44;;;;;;;;;;;;;;;;;;5096567;28;20310;-75
2021/11/29 16:08:09;;;;;;;;;;;;;;;;;;5096580;28;19917;-75
2021/11/29 16:10:36;;;;;;;;;;;;;;;;;;5096460;28;19965;-77
2021/11/29 16:13:01;;;;;;;;;;;;;;;;;;5096412;28;19923;-76
2021/11/29 16:15:27;;;;;;;;;;;;;;;;;;5096450;28;19920;-75
2021/11/29 16:17:52;;;;;;;;;;;;;;;;;;5096214;28;20424;-80
2021/11/29 16:20:18;;;;;;;;;;;;;;;;;;5078066;28;20287;-84
2021/11/29 16:22:43;;;;;;;;;;;;;;;;;;5078154;28;19916;-80
2021/11/29 16:25:09;;;;;;;;;;;;;;;;;;5078114;28;20005;-80
2021/11/29 16:27:35;;;;;;;;;;;;;;;;;;5078094;28;19922;-86
2021/11/29 16:30:00;;;;;;;;;;;;;;;;;;5096167;28;19917;-87
2021/11/29 16:32:27;;;;;;;;;;;;;;;;;;5096121;28;19977;-86
2021/11/29 16:34:53;;;;;;;;;;;;;;;;;;5077882;28;20283;-86
2021/11/29 16:37:18;;;;;;;;;;;;;;;;;;5077892;28;19923;-90
2021/11/29 16:39:47;;;;;;;;;;;;;;;;;;5096074;28;19951;-87
2021/11/29 16:42:13;;;;;;;;;;;;;;;;;;5095898;28;20355;-86
2021/11/29 16:44:38;;;;;;;;;;;;;;;;;;5096087;28;19955;-81
2021/11/29 16:47:04;;;;;;;;;;;;;;;;;;5077039;28;20337;-76
2021/11/29 16:49:29;;;;;;;;;;;;;;;;;;5077703;28;19959;-80
2021/11/29 16:51:55;;;;;;;;;;;;;;;;;;5077611;28;19920;-86